Burns, Colorado
Current Conditions -  °F | °C
As of 10:40 AM on Thursday 23 Oct 2014 (Local Time) from KEGE Reporting Station
Haze Haze  
Wind Chill: 37°   Ceiling: Unl
Heat Index: 37°   Visibility: 3mi
Dew Point: 37°   Wind: 0mph
Humidity: 100%   Direction: NA
Pressure: 30.37"   Gusts: NA
Location:  39.87°N, 106.89°W
Report Text: KEGE 231640Z 00000KT 3SM BR SCT002 03/03 A3037
Loading
Personal Weather Stations






























Interactive Weather Map
Tropical Storm Tracking
New forecast layout! Learn more

10-Day Weather Forecast

Advertisements
Track Severe Weather on mobile